Rolette, North Dakota
Current Conditions -  °F | °C
As of 4:35 PM on Friday 24 Oct 2014 (Local Time) from K06D Reporting Station
Clear Clear  
Wind Chill: 63°   Ceiling: Unl
Heat Index: 63°   Visibility: 10mi
Dew Point: 28°   Wind: 24mph
Humidity: 27%   Direction: 280°W
Pressure: 29.79"   Gusts: 35mph
Location:  48.66°N, 99.84°W
Report Text: K06D 242135Z AUTO 28021G30KT 10SM CLR 17/M02 A2979 RMK AO2
Loading
Personal Weather Stations






























Interactive Weather Map
Tropical Storm Tracking
New forecast layout! Learn more

10-Day Weather Forecast

Advertisements
Track Severe Weather on mobile